Time;durP1;ratioP1;P1;durP2;ratioP2;P2;SDS_P1;SDS_P2;PMS_P1;PMS_P2;Temp;Humidity;BMP_temperature;BMP_pressure;BME280_temperature;BME280_humidity;BME280_pressure;Samples;Min_cycle;Max_cycle;Signal;HPM_P1;HPM_P2
2021/01/16 00:00:29;;;;;;;36.90;25.05;;;-3.00;98.00;;;;;;5080293;28;20034;-65
2021/01/16 00:02:55;;;;;;;35.22;23.00;;;-3.00;98.00;;;;;;5092229;28;20028;-65
2021/01/16 00:05:23;;;;;;;35.78;23.35;;;-3.00;98.00;;;;;;5088073;28;20374;-64
2021/01/16 00:08:08;;;;;;;37.20;25.00;;;-3.00;98.00;;;;;;5093559;28;20032;-65
2021/01/16 00:10:36;;;;;;;42.55;24.05;;;-3.00;98.00;;;;;;5089497;28;20064;-65
2021/01/16 00:13:04;;;;;;;32.08;22.00;;;-3.00;98.00;;;;;;5078819;28;20055;-67
2021/01/16 00:15:30;;;;;;;44.72;24.60;;;-3.00;98.00;;;;;;5084530;28;20055;-67
2021/01/16 00:18:04;;;;;;;42.35;25.77;;;-3.00;98.00;;;;;;5085289;28;20063;-65
2021/01/16 00:20:32;;;;;;;40.78;25.33;;;-3.00;98.00;;;;;;5077652;28;20081;-66
2021/01/16 00:22:58;;;;;;;36.30;24.30;;;-3.00;98.00;;;;;;5073404;28;20040;-66
2021/01/16 00:25:24;;;;;;;38.17;23.45;;;-3.00;98.00;;;;;;5085805;28;20035;-66
2021/01/16 00:27:51;;;;;;;37.30;23.65;;;-3.00;98.00;;;;;;5086419;28;20046;-65
2021/01/16 00:30:19;;;;;;;35.92;23.63;;;-3.00;98.00;;;;;;5090309;28;20314;-65
2021/01/16 00:32:45;;;;;;;40.08;24.13;;;-3.00;98.00;;;;;;5080502;28;20036;-65
2021/01/16 00:35:14;;;;;;;43.45;25.73;;;-3.00;98.00;;;;;;5076686;28;20332;-65
2021/01/16 00:37:42;;;;;;;42.20;24.77;;;-3.00;98.00;;;;;;5074054;28;20028;-63
2021/01/16 00:40:11;;;;;;;40.75;25.77;;;-3.00;98.00;;;;;;5088866;28;20344;-64
2021/01/16 00:42:44;;;;;;;38.08;25.08;;;-3.00;98.00;;;;;;5079255;28;20028;-65
2021/01/16 00:45:12;;;;;;;41.40;25.47;;;-3.00;98.00;;;;;;5084850;28;20032;-64
2021/01/16 00:47:39;;;;;;;42.28;25.83;;;-3.10;98.00;;;;;;5089047;28;20375;-64
2021/01/16 00:50:07;;;;;;;41.80;28.60;;;-3.10;98.00;;;;;;5085215;28;20047;-65
2021/01/16 00:52:33;;;;;;;40.08;26.25;;;-3.10;98.00;;;;;;5095955;28;20341;-67
2021/01/16 00:55:00;;;;;;;40.53;26.35;;;-3.10;98.00;;;;;;5095767;28;20013;-67
2021/01/16 00:57:27;;;;;;;38.72;26.25;;;-3.00;98.00;;;;;;5096930;28;20024;-66
2021/01/16 00:59:54;;;;;;;39.08;25.80;;;-3.10;98.00;;;;;;5087101;28;20107;-67
2021/01/16 01:02:20;;;;;;;42.15;26.02;;;-3.00;98.00;;;;;;5076427;28;20078;-64
2021/01/16 01:04:46;;;;;;;40.25;25.58;;;-3.00;98.00;;;;;;5086588;28;20073;-65
2021/01/16 01:07:13;;;;;;;37.75;24.75;;;-3.00;98.00;;;;;;5095249;28;20028;-67
2021/01/16 01:09:43;;;;;;;35.80;23.33;;;-3.00;98.00;;;;;;5091435;28;20035;-65
2021/01/16 01:12:11;;;;;;;37.75;24.33;;;-3.00;98.00;;;;;;5077344;28;20029;-66
2021/01/16 01:14:37;;;;;;;38.05;24.05;;;-3.00;98.00;;;;;;5084031;28;20040;-66
2021/01/16 01:17:17;;;;;;;37.13;24.10;;;-2.90;98.00;;;;;;5075113;28;20032;-67
2021/01/16 01:19:43;;;;;;;34.13;23.50;;;-2.90;98.00;;;;;;5076334;28;20097;-65
2021/01/16 01:22:09;;;;;;;37.47;23.50;;;-2.90;98.00;;;;;;5073689;28;20422;-65
2021/01/16 01:24:36;;;;;;;37.28;22.85;;;-2.90;98.00;;;;;;5079028;28;20038;-66
2021/01/16 01:27:06;;;;;;;40.03;23.85;;;-2.90;98.00;;;;;;5094968;28;20032;-66
2021/01/16 01:29:35;;;;;;;31.55;21.65;;;-2.90;98.00;;;;;;5094054;28;20036;-67
2021/01/16 01:32:00;;;;;;;42.67;24.67;;;-2.90;98.00;;;;;;5083101;28;20047;-67
2021/01/16 01:34:29;;;;;;;36.25;23.67;;;-2.90;98.00;;;;;;5078383;28;20032;-66
2021/01/16 01:37:02;;;;;;;36.10;24.27;;;-2.90;98.00;;;;;;5084691;28;20028;-66
2021/01/16 01:39:38;;;;;;;38.40;24.02;;;-2.90;98.00;;;;;;5086968;28;20070;-65
2021/01/16 01:42:04;;;;;;;37.25;23.65;;;-2.90;98.00;;;;;;5076697;28;20080;-65
2021/01/16 01:44:30;;;;;;;34.80;23.98;;;-2.90;98.00;;;;;;5088756;28;20043;-66
2021/01/16 01:46:56;;;;;;;37.80;25.65;;;-2.80;98.00;;;;;;5086237;28;20032;-65
2021/01/16 01:49:22;;;;;;;36.85;22.95;;;-2.80;98.00;;;;;;5075759;28;20085;-66
2021/01/16 01:51:49;;;;;;;31.90;22.27;;;-2.80;98.00;;;;;;5089038;28;20044;-65
2021/01/16 01:54:17;;;;;;;34.22;22.98;;;-2.80;98.00;;;;;;5094883;28;20028;-66
2021/01/16 01:56:44;;;;;;;36.85;23.42;;;-2.70;98.00;;;;;;5087047;28;20379;-66
2021/01/16 01:59:12;;;;;;;33.80;22.50;;;-2.80;98.00;;;;;;5095819;28;20020;-67
2021/01/16 02:01:46;;;;;;;33.42;21.60;;;-2.80;98.00;;;;;;5083486;28;20024;-67
2021/01/16 02:04:12;;;;;;;33.25;21.20;;;-2.80;98.00;;;;;;5075484;28;20028;-66
2021/01/16 02:06:38;;;;;;;32.20;21.13;;;-2.80;98.00;;;;;;5075359;28;20085;-66
2021/01/16 02:09:04;;;;;;;35.75;23.35;;;-2.80;98.00;;;;;;5074268;28;20107;-65
2021/01/16 02:11:31;;;;;;;33.30;22.23;;;-2.70;98.00;;;;;;5092517;28;20036;-66
2021/01/16 02:13:57;;;;;;;31.95;20.90;;;-2.70;98.00;;;;;;5089978;28;20032;-66
2021/01/16 02:16:45;;;;;;;35.90;21.83;;;-2.70;98.00;;;;;;5088247;28;20482;-65
2021/01/16 02:19:12;;;;;;;32.47;22.70;;;-2.80;98.00;;;;;;5075510;28;20142;-65
2021/01/16 02:21:46;;;;;;;36.15;22.30;;;-2.80;98.00;;;;;;5076371;28;20029;-67
2021/01/16 02:24:17;;;;;;;34.88;20.80;;;-2.80;98.00;;;;;;5073073;28;20102;-65
2021/01/16 02:26:46;;;;;;;33.63;22.13;;;-2.80;98.00;;;;;;5077131;28;20036;-66
2021/01/16 02:29:12;;;;;;;33.50;21.08;;;-2.80;98.00;;;;;;5075246;28;20377;-65
2021/01/16 02:31:46;;;;;;;39.75;21.80;;;-2.80;98.00;;;;;;5089244;28;20107;-66
2021/01/16 02:34:15;;;;;;;31.52;21.77;;;-2.80;98.00;;;;;;5090927;28;20351;-67
2021/01/16 02:37:15;;;;;;;30.38;20.65;;;-2.80;98.00;;;;;;5086837;28;20067;-65
2021/01/16 02:40:10;;;;;;;36.72;20.98;;;-2.90;98.00;;;;;;5074003;28;20036;-65
2021/01/16 02:42:47;;;;;;;37.20;22.40;;;-2.90;98.00;;;;;;5082129;28;20032;-64
2021/01/16 02:45:21;;;;;;;32.13;21.20;;;-2.90;98.00;;;;;;5081027;28;20044;-65
2021/01/16 02:47:48;;;;;;;30.10;21.15;;;-2.90;98.00;;;;;;5094292;28;20035;-67
2021/01/16 02:50:22;;;;;;;32.60;21.58;;;-2.90;98.00;;;;;;5093161;28;20418;-66
2021/01/16 02:52:49;;;;;;;;;;;-2.90;98.00;;;;;;5094486;28;20020;-66
2021/01/16 02:55:16;;;;;;;33.35;21.95;;;-2.90;98.00;;;;;;5076803;28;20356;-65
2021/01/16 02:57:43;;;;;;;32.45;20.70;;;-2.90;98.00;;;;;;5074138;28;20032;-65
2021/01/16 03:00:12;;;;;;;28.95;19.02;;;-2.90;98.00;;;;;;5089519;28;20314;-64
2021/01/16 03:02:38;;;;;;;34.15;21.48;;;-2.80;98.00;;;;;;5077300;28;20028;-64
2021/01/16 03:05:05;;;;;;;32.03;22.60;;;-2.80;98.00;;;;;;5076434;28;20472;-64
2021/01/16 03:07:32;;;;;;;34.95;22.33;;;-2.80;98.00;;;;;;5075496;28;20107;-67
2021/01/16 03:10:10;;;;;;;31.27;21.85;;;-2.80;98.00;;;;;;5077396;28;20031;-67
2021/01/16 03:12:37;;;;;;;38.38;26.13;;;-2.70;98.00;;;;;;5077220;28;20359;-66
2021/01/16 03:15:11;;;;;;;38.35;25.73;;;-2.80;98.00;;;;;;5082653;28;20029;-66
2021/01/16 03:17:51;;;;;;;;;;;-2.80;98.00;;;;;;5082831;28;20052;-66
2021/01/16 03:20:24;;;;;;;42.47;27.10;;;-2.80;98.00;;;;;;5086237;28;19916;-67
2021/01/16 03:22:51;;;;;;;40.70;26.70;;;-2.80;98.00;;;;;;5083165;28;20032;-67
2021/01/16 03:25:21;;;;;;;46.90;25.55;;;-2.90;98.00;;;;;;5082272;28;20267;-67
2021/01/16 03:27:48;;;;;;;44.45;27.30;;;-2.90;98.00;;;;;;5082385;28;20483;-67
2021/01/16 03:30:17;;;;;;;39.63;26.40;;;-2.90;98.00;;;;;;5084079;28;20073;-67
2021/01/16 03:32:49;;;;;;;46.72;26.23;;;-2.90;98.00;;;;;;5078710;28;20028;-65
2021/01/16 03:35:16;;;;;;;44.20;26.80;;;-2.90;98.00;;;;;;5090989;28;20039;-67
2021/01/16 03:37:44;;;;;;;42.85;26.08;;;-3.00;98.00;;;;;;5083379;28;20022;-66
2021/01/16 03:40:10;;;;;;;40.20;25.75;;;-2.90;98.00;;;;;;5090945;28;20317;-67
2021/01/16 03:42:36;;;;;;;48.13;27.98;;;-2.90;98.00;;;;;;5083939;28;20028;-67
2021/01/16 03:45:08;;;;;;;35.92;25.13;;;-2.90;98.00;;;;;;5085012;28;20028;-67
2021/01/16 03:47:33;;;;;;;44.90;26.75;;;-2.90;98.00;;;;;;5094103;28;20024;-65
2021/01/16 03:49:59;;;;;;;41.20;28.08;;;-2.90;98.00;;;;;;5095296;28;20028;-67
2021/01/16 03:52:34;;;;;;;44.92;26.48;;;-3.00;98.00;;;;;;5076918;28;20111;-66
2021/01/16 03:55:00;;;;;;;47.60;25.25;;;-3.00;98.00;;;;;;5095085;28;20024;-66
2021/01/16 03:57:27;;;;;;;39.58;26.17;;;-2.90;98.00;;;;;;5097249;28;20361;-65
2021/01/16 03:59:53;;;;;;;38.42;24.92;;;-2.90;98.00;;;;;;5086654;28;20033;-67
2021/01/16 04:02:19;;;;;;;44.58;25.52;;;-2.90;98.00;;;;;;5088991;28;20020;-65
2021/01/16 04:04:46;;;;;;;37.85;24.20;;;-3.00;98.00;;;;;;5078349;28;20078;-65
2021/01/16 04:07:12;;;;;;;34.88;24.10;;;-3.00;98.00;;;;;;5078046;28;20028;-67
2021/01/16 04:09:38;;;;;;;41.35;24.58;;;-3.00;98.00;;;;;;5078440;28;20031;-66
2021/01/16 04:12:04;;;;;;;36.63;24.92;;;-3.00;98.00;;;;;;5078658;28;20024;-67
2021/01/16 04:14:29;;;;;;;35.40;23.17;;;-3.00;98.00;;;;;;5084048;28;20032;-66
2021/01/16 04:16:55;;;;;;;34.17;22.88;;;-3.00;98.00;;;;;;5085223;28;20024;-67
2021/01/16 04:19:21;;;;;;;33.60;22.27;;;-3.00;98.00;;;;;;5076824;28;20044;-66
2021/01/16 04:21:46;;;;;;;35.58;21.63;;;-2.90;98.00;;;;;;5087375;28;20016;-66
2021/01/16 04:24:13;;;;;;;40.63;23.50;;;-3.00;98.00;;;;;;5077440;28;20093;-65
2021/01/16 04:26:39;;;;;;;36.03;23.88;;;-3.00;98.00;;;;;;5079274;28;20059;-65
2021/01/16 04:29:05;;;;;;;36.90;23.85;;;-3.00;98.00;;;;;;5086442;28;20374;-65
2021/01/16 04:31:30;;;;;;;38.72;25.10;;;-3.00;98.00;;;;;;5080548;28;20052;-67
2021/01/16 04:33:56;;;;;;;41.25;25.65;;;-3.10;98.00;;;;;;5089896;28;20107;-67
2021/01/16 04:36:22;;;;;;;39.72;23.83;;;-3.10;98.00;;;;;;5077369;28;20016;-66
2021/01/16 04:38:48;;;;;;;39.15;23.10;;;-3.20;98.00;;;;;;5091584;28;20039;-66
2021/01/16 04:41:14;;;;;;;38.35;25.05;;;-3.20;98.00;;;;;;5083327;28;20027;-65
2021/01/16 04:43:41;;;;;;;35.15;22.42;;;-3.20;98.00;;;;;;5086828;28;20412;-66
2021/01/16 04:46:09;;;;;;;39.70;23.98;;;-3.20;98.00;;;;;;5086102;28;20047;-65
2021/01/16 04:48:37;;;;;;;40.92;23.20;;;-3.20;98.00;;;;;;5085504;28;20403;-65
2021/01/16 04:51:05;;;;;;;37.85;23.63;;;-3.20;98.00;;;;;;5078802;28;20317;-66
2021/01/16 04:53:39;;;;;;;39.58;25.30;;;-3.20;98.00;;;;;;5083727;28;20052;-66
2021/01/16 04:56:05;;;;;;;;;;;-3.20;98.00;;;;;;5086981;28;20024;-67
2021/01/16 04:58:37;;;;;;;38.95;24.70;;;-3.20;98.00;;;;;;5081900;28;20268;-65
2021/01/16 05:01:09;;;;;;;36.00;23.42;;;-3.20;98.00;;;;;;5088484;28;20028;-67
2021/01/16 05:03:37;;;;;;;36.53;22.33;;;-3.20;98.00;;;;;;5091414;28;20075;-65
2021/01/16 05:06:07;;;;;;;37.90;23.63;;;-3.20;98.00;;;;;;5089394;28;20056;-64
2021/01/16 05:08:36;;;;;;;39.03;23.63;;;-3.20;98.00;;;;;;5080570;28;20299;-65
2021/01/16 05:11:05;;;;;;;39.88;24.83;;;-3.20;98.00;;;;;;5082303;28;20055;-66
2021/01/16 05:13:42;;;;;;;38.75;23.80;;;-3.30;98.00;;;;;;5080003;28;20103;-65
2021/01/16 05:16:11;;;;;;;32.60;21.65;;;-3.30;98.00;;;;;;5081695;28;20020;-64
2021/01/16 05:18:39;;;;;;;37.33;26.23;;;-3.30;98.00;;;;;;5089716;28;20410;-65
2021/01/16 05:21:05;;;;;;;40.95;26.58;;;-3.30;98.00;;;;;;5077292;28;20021;-64
2021/01/16 05:23:33;;;;;;;41.50;25.40;;;-3.30;98.00;;;;;;5086234;28;20054;-64
2021/01/16 05:25:59;;;;;;;43.80;24.98;;;-3.30;98.00;;;;;;5093199;28;20020;-66
2021/01/16 05:28:26;;;;;;;46.90;25.83;;;-3.30;98.00;;;;;;5091544;28;20024;-64
2021/01/16 05:30:51;;;;;;;37.72;23.45;;;-3.30;98.00;;;;;;5081012;28;20034;-65
2021/01/16 05:33:19;;;;;;;37.80;23.75;;;-3.40;98.00;;;;;;5086079;28;20032;-64
2021/01/16 05:35:45;;;;;;;34.28;21.90;;;-3.40;98.00;;;;;;5084284;28;20161;-65
2021/01/16 05:38:15;;;;;;;34.08;21.08;;;-3.40;98.00;;;;;;5088781;28;20333;-65
2021/01/16 05:40:41;;;;;;;39.20;24.10;;;-3.40;98.00;;;;;;5076293;28;20032;-65
2021/01/16 05:43:07;;;;;;;37.42;22.70;;;-3.40;98.00;;;;;;5082516;28;20047;-67
2021/01/16 05:45:34;;;;;;;34.13;21.98;;;-3.40;98.00;;;;;;5084564;28;20395;-64
2021/01/16 05:48:05;;;;;;;36.15;20.30;;;-3.40;98.00;;;;;;5091948;28;20031;-66
2021/01/16 05:50:34;;;;;;;33.28;22.05;;;-3.50;98.00;;;;;;5083580;28;20028;-64
2021/01/16 05:53:00;;;;;;;39.17;22.75;;;-3.50;98.00;;;;;;5082661;28;20106;-64
2021/01/16 05:55:29;;;;;;;39.08;22.45;;;-3.50;98.00;;;;;;5091937;28;20020;-66
2021/01/16 05:58:08;;;;;;;34.05;20.25;;;-3.50;98.00;;;;;;5077818;28;20396;-65
2021/01/16 06:00:38;;;;;;;38.65;20.27;;;-3.50;98.00;;;;;;5081650;28;20314;-64
2021/01/16 06:03:06;;;;;;;29.50;19.27;;;-3.50;98.00;;;;;;5080325;28;20050;-66
2021/01/16 06:05:36;;;;;;;38.13;23.73;;;-3.50;98.00;;;;;;5083790;28;20057;-67
2021/01/16 06:08:03;;;;;;;42.40;26.02;;;-3.50;98.00;;;;;;5085231;28;20036;-66
2021/01/16 06:10:34;;;;;;;45.55;28.67;;;-3.50;98.00;;;;;;5082694;28;20424;-67
2021/01/16 06:13:12;;;;;;;33.90;22.20;;;-3.40;98.00;;;;;;5083657;28;20107;-67
2021/01/16 06:15:49;;;;;;;42.42;23.92;;;-3.40;98.00;;;;;;5088505;28;20074;-65
2021/01/16 06:18:27;;;;;;;33.70;20.83;;;-3.50;98.00;;;;;;5089818;28;20337;-67
2021/01/16 06:20:55;;;;;;;33.58;21.88;;;-3.50;98.00;;;;;;5080400;28;20109;-67
2021/01/16 06:23:24;;;;;;;34.72;22.55;;;-3.40;98.00;;;;;;5076212;28;20032;-67
2021/01/16 06:25:55;;;;;;;35.20;22.10;;;-3.30;98.00;;;;;;5078728;28;20024;-67
2021/01/16 06:28:24;;;;;;;37.65;22.77;;;-3.40;98.00;;;;;;5078442;28;20107;-67
2021/01/16 06:30:55;;;;;;;38.20;22.83;;;-3.40;98.00;;;;;;5078372;28;20021;-67
2021/01/16 06:33:25;;;;;;;38.80;24.77;;;-3.30;98.00;;;;;;5086067;28;20033;-66
2021/01/16 06:36:02;;;;;;;40.17;24.25;;;-3.30;98.00;;;;;;5074250;28;20052;-67
2021/01/16 06:38:30;;;;;;;28.15;19.10;;;-3.30;98.00;;;;;;5075462;28;20028;-67
2021/01/16 06:41:10;;;;;;;26.58;16.65;;;-3.40;98.00;;;;;;5090388;28;20085;-66
2021/01/16 06:43:39;;;;;;;32.17;18.42;;;-3.50;98.00;;;;;;5077986;28;20063;-66
2021/01/16 06:46:10;;;;;;;33.67;19.48;;;-3.50;98.00;;;;;;5089084;28;20123;-65
2021/01/16 06:48:43;;;;;;;33.80;21.88;;;-3.50;98.00;;;;;;5090597;28;20111;-65
2021/01/16 06:51:11;;;;;;;34.33;21.13;;;-3.50;98.00;;;;;;5076907;28;20056;-64
2021/01/16 06:53:38;;;;;;;33.10;21.02;;;-3.50;98.00;;;;;;5089545;28;20059;-66
2021/01/16 06:56:08;;;;;;;53.55;33.05;;;-3.50;98.00;;;;;;5078084;28;20028;-66
2021/01/16 06:58:39;;;;;;;47.88;28.00;;;-3.50;98.00;;;;;;5082421;28;20086;-66
2021/01/16 07:01:07;;;;;;;34.22;22.83;;;-3.50;98.00;;;;;;5085281;28;20035;-65
2021/01/16 07:03:39;;;;;;;35.78;22.65;;;-3.50;98.00;;;;;;5082585;28;20134;-65
2021/01/16 07:06:05;;;;;;;34.00;21.77;;;-3.50;98.00;;;;;;5076759;28;20033;-65
2021/01/16 07:08:33;;;;;;;36.13;23.38;;;-3.50;98.00;;;;;;5083638;28;20024;-66
2021/01/16 07:11:02;;;;;;;37.63;23.52;;;-3.40;98.00;;;;;;5082475;28;20056;-64
2021/01/16 07:13:32;;;;;;;46.17;26.88;;;-3.50;98.00;;;;;;5084521;28;20028;-65
2021/01/16 07:15:59;;;;;;;40.30;25.50;;;-3.40;98.00;;;;;;5078481;28;20025;-66
2021/01/16 07:18:26;;;;;;;38.60;23.27;;;-3.40;98.00;;;;;;5090141;28;20491;-65
2021/01/16 07:20:57;;;;;;;39.03;24.83;;;-3.40;98.00;;;;;;5086633;28;20107;-64
2021/01/16 07:23:23;;;;;;;42.38;24.92;;;-3.30;98.00;;;;;;5084910;28;20043;-64
2021/01/16 07:25:53;;;;;;;39.00;23.40;;;-3.30;98.00;;;;;;5082332;28;20058;-66
2021/01/16 07:28:23;;;;;;;36.75;23.17;;;-3.30;98.00;;;;;;5096575;28;20491;-64
2021/01/16 07:30:50;;;;;;;35.92;18.83;;;-3.30;98.00;;;;;;5093859;28;20059;-66
2021/01/16 07:33:16;;;;;;;27.75;16.90;;;-3.20;98.00;;;;;;5082516;28;20040;-65
2021/01/16 07:35:50;;;;;;;33.72;18.95;;;-3.30;98.00;;;;;;5080851;28;20028;-65
2021/01/16 07:38:17;;;;;;;;;;;-3.40;98.00;;;;;;5079134;28;20095;-67
2021/01/16 07:40:45;;;;;;;25.67;16.20;;;-3.30;98.00;;;;;;5082518;28;19908;-65
2021/01/16 07:43:34;;;;;;;45.33;26.60;;;-3.30;98.00;;;;;;5077868;28;20620;-65
2021/01/16 07:46:00;;;;;;;39.35;21.65;;;-3.20;98.00;;;;;;5087438;28;20037;-67
2021/01/16 07:48:33;;;;;;;31.92;21.10;;;-3.10;98.00;;;;;;5092838;28;20162;-65
2021/01/16 07:51:01;;;;;;;32.92;20.30;;;-3.00;98.00;;;;;;5091391;28;20459;-64
2021/01/16 07:53:29;;;;;;;63.25;34.83;;;-3.00;98.00;;;;;;5089627;28;20054;-64
2021/01/16 07:56:20;;;;;;;61.88;32.50;;;-3.00;98.00;;;;;;5092978;28;20055;-66
2021/01/16 07:59:15;;;;;;;52.85;33.15;;;-3.10;98.00;;;;;;5086407;28;20459;-65
2021/01/16 08:01:53;;;;;;;38.33;25.25;;;-3.10;98.00;;;;;;5088321;28;20463;-66
2021/01/16 08:04:29;;;;;;;42.08;24.40;;;-3.00;98.00;;;;;;5079131;28;20028;-67
2021/01/16 08:07:09;;;;;;;35.35;24.85;;;-3.00;98.00;;;;;;5087943;28;20103;-65
2021/01/16 08:09:40;;;;;;;42.67;26.08;;;-3.00;98.00;;;;;;5079555;28;20101;-65
2021/01/16 08:12:11;;;;;;;35.92;24.55;;;-3.00;98.00;;;;;;5082082;28;20068;-67
2021/01/16 08:14:39;;;;;;;35.15;22.65;;;-3.00;98.00;;;;;;5087256;28;20344;-66
2021/01/16 08:17:05;;;;;;;35.70;21.02;;;-3.10;98.00;;;;;;5077565;28;20425;-65
2021/01/16 08:19:53;;;;;;;36.17;21.95;;;-3.10;98.00;;;;;;5092831;28;20024;-67
2021/01/16 08:22:19;;;;;;;34.17;22.00;;;-3.00;98.00;;;;;;5083040;28;20047;-65
2021/01/16 08:25:02;;;;;;;31.30;20.73;;;-2.90;98.00;;;;;;5079388;28;20039;-65
2021/01/16 08:27:32;;;;;;;34.63;21.95;;;-2.80;98.00;;;;;;5091089;28;20028;-67
2021/01/16 08:30:05;;;;;;;31.85;21.55;;;-2.70;98.00;;;;;;5080446;28;20051;-64
2021/01/16 08:32:30;;;;;;;33.45;21.20;;;-2.50;98.00;;;;;;5091465;28;20020;-64
2021/01/16 08:35:01;;;;;;;38.67;21.10;;;-2.40;98.00;;;;;;5079220;28;20060;-65
2021/01/16 08:37:32;;;;;;;32.85;21.00;;;-2.20;98.00;;;;;;5089668;28;20400;-65
2021/01/16 08:40:00;;;;;;;39.28;22.45;;;-2.10;98.00;;;;;;5080769;28;20020;-66
2021/01/16 08:42:27;;;;;;;42.47;24.27;;;-2.00;98.00;;;;;;5089773;28;20126;-65
2021/01/16 08:44:55;;;;;;;34.35;22.25;;;-1.90;98.00;;;;;;5090912;28;20051;-66
2021/01/16 08:47:21;;;;;;;37.85;23.33;;;-1.70;98.00;;;;;;5087638;28;20032;-65
2021/01/16 08:49:47;;;;;;;33.53;21.63;;;-1.60;98.00;;;;;;5082804;28;20034;-64
2021/01/16 08:52:29;;;;;;;34.10;21.02;;;-1.50;98.00;;;;;;5085044;28;20028;-64
2021/01/16 08:55:03;;;;;;;37.08;24.33;;;-1.70;98.00;;;;;;5079508;28;20306;-65
2021/01/16 08:57:37;;;;;;;;;;;-1.70;98.00;;;;;;5077833;28;20024;-66
2021/01/16 09:00:22;;;;;;;29.35;18.42;;;-1.70;98.00;;;;;;5079862;28;19912;-67
2021/01/16 09:03:07;;;;;;;31.05;20.42;;;-1.60;98.00;;;;;;5088364;28;20157;-67
2021/01/16 09:05:39;;;;;;;32.03;20.10;;;-1.80;98.00;;;;;;5078303;28;20360;-67
2021/01/16 09:08:48;;;;;;;30.45;18.15;;;-1.70;98.00;;;;;;5084622;28;20033;-67
2021/01/16 09:11:14;;;;;;;35.25;20.10;;;-1.50;98.00;;;;;;5065820;28;20381;-67
2021/01/16 09:13:41;;;;;;;28.40;17.02;;;-1.20;98.00;;;;;;5086189;28;20060;-67
2021/01/16 09:16:27;;;;;;;23.70;15.35;;;-0.90;98.00;;;;;;5084383;28;20020;-66
2021/01/16 09:18:56;;;;;;;22.13;15.25;;;-0.70;98.00;;;;;;5078294;28;20147;-66
2021/01/16 09:21:26;;;;;;;31.40;17.80;;;-0.60;98.00;;;;;;5086780;28;20051;-66
2021/01/16 09:23:55;;;;;;;360.48;100.15;;;-0.40;97.70;;;;;;5090198;28;20032;-65
2021/01/16 09:26:22;;;;;;;59.60;23.42;;;-0.30;96.60;;;;;;5082634;28;20083;-66
2021/01/16 09:28:57;;;;;;;64.97;30.45;;;0.00;96.30;;;;;;5085868;28;20028;-67
2021/01/16 09:31:27;;;;;;;30.30;14.65;;;0.20;95.60;;;;;;5079706;28;20360;-66
2021/01/16 09:34:13;;;;;;;21.88;13.00;;;0.30;95.00;;;;;;5081656;28;20028;-66
2021/01/16 09:36:58;;;;;;;23.52;13.43;;;0.50;94.40;;;;;;5082970;28;20374;-64
2021/01/16 09:39:29;;;;;;;23.23;13.82;;;0.70;92.60;;;;;;5079132;28;20027;-64
2021/01/16 09:42:00;;;;;;;26.98;15.43;;;0.60;91.90;;;;;;5084609;28;20077;-67
2021/01/16 09:44:37;;;;;;;26.45;15.00;;;0.40;92.30;;;;;;5082931;28;20033;-67
2021/01/16 09:47:03;;;;;;;23.05;14.65;;;0.00;92.40;;;;;;5087758;28;20107;-65
2021/01/16 09:49:45;;;;;;;23.45;15.02;;;0.00;93.40;;;;;;5082510;28;20466;-65
2021/01/16 09:52:12;;;;;;;21.27;12.18;;;0.10;93.60;;;;;;5080171;28;20690;-66
2021/01/16 09:54:43;;;;;;;23.60;14.65;;;0.20;92.70;;;;;;5079175;28;20024;-67
2021/01/16 09:57:10;;;;;;;20.40;14.15;;;0.40;92.60;;;;;;5088963;28;20030;-65
2021/01/16 09:59:35;;;;;;;25.50;15.57;;;0.30;93.10;;;;;;5082924;28;20032;-68
2021/01/16 10:02:12;;;;;;;21.55;13.60;;;0.40;93.10;;;;;;5077560;28;20025;-66
2021/01/16 10:04:40;;;;;;;24.67;13.43;;;0.50;92.00;;;;;;5080833;28;20378;-67
2021/01/16 10:07:14;;;;;;;21.23;13.88;;;0.40;90.90;;;;;;5079094;28;20111;-65
2021/01/16 10:09:49;;;;;;;;;;;0.30;90.90;;;;;;5084959;28;20403;-66
2021/01/16 10:12:47;;;;;;;17.35;10.70;;;-0.10;91.70;;;;;;5084379;28;19908;-67
2021/01/16 10:15:24;;;;;;;17.08;10.98;;;-0.10;92.80;;;;;;5082403;28;21309;-65
2021/01/16 10:17:56;;;;;;;16.98;9.73;;;0.50;91.80;;;;;;5089411;28;20044;-65
2021/01/16 10:20:32;;;;;;;17.35;10.93;;;1.20;89.90;;;;;;5084015;28;20037;-67
2021/01/16 10:23:02;;;;;;;14.43;9.70;;;1.90;87.40;;;;;;5082229;28;20052;-66
2021/01/16 10:25:42;;;;;;;12.15;7.95;;;1.60;85.40;;;;;;5079009;28;20030;-65
2021/01/16 10:28:28;;;;;;;13.32;9.00;;;1.60;85.60;;;;;;5078737;28;20032;-65
2021/01/16 10:30:59;;;;;;;17.42;9.10;;;2.70;85.20;;;;;;5082057;28;20436;-65
2021/01/16 10:33:26;;;;;;;12.82;8.50;;;2.80;82.20;;;;;;5083081;28;20035;-65
2021/01/16 10:36:08;;;;;;;14.80;9.15;;;2.80;82.00;;;;;;5082856;28;20012;-66
2021/01/16 10:38:45;;;;;;;12.30;7.68;;;3.10;81.40;;;;;;5090093;28;20024;-67
2021/01/16 10:41:32;;;;;;;16.90;8.18;;;3.50;80.20;;;;;;5078204;28;20029;-67
2021/01/16 10:44:00;;;;;;;13.35;8.50;;;3.80;78.50;;;;;;5076094;28;20033;-66
2021/01/16 10:46:32;;;;;;;12.85;8.48;;;3.90;78.90;;;;;;5093046;28;20451;-67
2021/01/16 10:49:33;;;;;;;12.65;7.93;;;5.30;76.40;;;;;;5091656;28;20098;-65
2021/01/16 10:52:04;;;;;;;12.52;8.25;;;6.60;72.10;;;;;;5085373;28;20040;-68
2021/01/16 10:54:30;;;;;;;13.23;7.70;;;6.50;69.70;;;;;;5096540;28;20035;-67
2021/01/16 10:57:03;;;;;;;11.65;7.45;;;7.10;69.70;;;;;;5081690;28;20031;-65
2021/01/16 10:59:38;;;;;;;14.38;8.05;;;7.20;68.30;;;;;;5087317;28;20028;-67
2021/01/16 11:02:11;;;;;;;12.13;7.68;;;7.60;68.00;;;;;;5091106;28;20031;-68
2021/01/16 11:04:42;;;;;;;12.20;6.70;;;7.10;67.00;;;;;;5084838;28;20033;-67
2021/01/16 11:07:30;;;;;;;11.50;7.32;;;6.10;67.20;;;;;;5077652;28;20043;-67
2021/01/16 11:10:05;;;;;;;18.33;10.57;;;4.30;71.00;;;;;;5090398;28;20033;-67
2021/01/16 11:12:31;;;;;;;16.05;9.70;;;3.40;76.10;;;;;;5085808;28;20031;-65
2021/01/16 11:15:00;;;;;;;17.48;11.57;;;3.60;76.60;;;;;;5081946;28;20024;-65
2021/01/16 11:17:50;;;;;;;28.15;17.15;;;3.20;77.00;;;;;;5095944;28;20028;-65
2021/01/16 11:20:37;;;;;;;22.05;13.68;;;2.00;80.60;;;;;;5085275;28;20043;-66
2021/01/16 11:23:31;;;;;;;22.85;13.73;;;1.30;82.80;;;;;;5078491;28;20369;-66
2021/01/16 11:26:05;;;;;;;20.88;14.30;;;0.50;85.30;;;;;;5085359;28;20032;-67
2021/01/16 11:28:56;;;;;;;26.65;16.42;;;0.00;87.80;;;;;;5080338;28;20025;-66
2021/01/16 11:31:38;;;;;;;31.88;19.50;;;0.00;89.10;;;;;;5089256;28;20020;-67
2021/01/16 11:34:07;;;;;;;28.75;18.17;;;-0.10;89.50;;;;;;5085488;28;20035;-65
2021/01/16 11:36:34;;;;;;;24.83;17.25;;;-0.40;90.20;;;;;;5083958;28;20025;-65
2021/01/16 11:39:00;;;;;;;22.33;15.95;;;-0.60;91.30;;;;;;5086640;28;20016;-65
2021/01/16 11:41:52;;;;;;;21.73;15.55;;;-0.20;92.40;;;;;;5093858;28;20025;-65
2021/01/16 11:44:18;;;;;;;22.33;13.68;;;0.40;91.50;;;;;;5090630;28;20031;-65
2021/01/16 11:46:49;;;;;;;21.02;13.70;;;1.90;87.90;;;;;;5096251;28;20028;-65
2021/01/16 11:49:14;;;;;;;26.80;14.85;;;2.90;84.00;;;;;;5089224;28;20294;-65
2021/01/16 11:51:41;;;;;;;21.02;12.98;;;3.10;82.30;;;;;;5090617;28;20034;-65
2021/01/16 11:54:09;;;;;;;25.05;14.73;;;3.20;80.80;;;;;;5088702;28;20110;-65
2021/01/16 11:56:38;;;;;;;23.10;13.43;;;2.90;81.10;;;;;;5091242;28;20077;-68
2021/01/16 11:59:07;;;;;;;20.45;13.63;;;2.50;82.20;;;;;;5091550;28;20058;-64
2021/01/16 12:01:38;;;;;;;19.67;13.05;;;1.50;83.30;;;;;;5090039;28;20020;-68
2021/01/16 12:04:05;;;;;;;25.20;12.80;;;0.80;85.60;;;;;;5078070;28;20029;-67
2021/01/16 12:06:32;;;;;;;20.48;13.27;;;0.30;87.60;;;;;;5078660;28;20085;-68
2021/01/16 12:08:58;;;;;;;19.50;11.35;;;1.00;88.30;;;;;;5077996;28;20031;-65
2021/01/16 12:11:25;;;;;;;17.17;10.30;;;2.40;85.80;;;;;;5082668;28;20028;-68
2021/01/16 12:13:51;;;;;;;16.55;10.20;;;3.20;81.20;;;;;;5081195;28;20032;-66
2021/01/16 12:16:18;;;;;;;17.92;9.90;;;4.30;78.30;;;;;;5081543;28;20036;-66
2021/01/16 12:18:46;;;;;;;16.55;11.25;;;4.60;76.40;;;;;;5082842;28;20044;-68
2021/01/16 12:21:12;;;;;;;17.20;11.05;;;4.60;75.70;;;;;;5082078;28;20077;-68
2021/01/16 12:23:47;;;;;;;21.23;11.32;;;4.20;76.90;;;;;;5076914;28;20108;-67
2021/01/16 12:26:15;;;;;;;21.40;11.15;;;4.40;76.50;;;;;;5089093;28;20024;-67
2021/01/16 12:28:50;;;;;;;23.33;11.43;;;4.10;76.50;;;;;;5086825;28;20036;-65
2021/01/16 12:31:22;;;;;;;19.60;10.35;;;3.60;78.30;;;;;;5083074;28;20036;-67
2021/01/16 12:33:48;;;;;;;18.60;10.25;;;3.80;77.10;;;;;;5087801;28;20039;-67
2021/01/16 12:36:14;;;;;;;14.80;10.02;;;3.30;78.20;;;;;;5083495;28;20020;-66
2021/01/16 12:38:39;;;;;;;16.05;10.85;;;2.90;79.60;;;;;;5087264;28;20032;-66
2021/01/16 12:41:05;;;;;;;16.63;10.13;;;3.00;79.20;;;;;;5094117;28;20118;-67
2021/01/16 12:43:31;;;;;;;16.92;10.98;;;3.20;79.80;;;;;;5084529;28;20036;-66
2021/01/16 12:46:05;;;;;;;17.00;11.07;;;3.10;80.10;;;;;;5076662;28;20020;-65
2021/01/16 12:48:31;;;;;;;17.75;11.32;;;3.10;80.70;;;;;;5088126;28;20026;-67